sensor_id;sensor_type;location;lat;lon;timestamp;pressure;altitude;pressure_sealevel;temperature;humidity
59073;BME280;44859;51.934;15.554;2024-02-28T00:00:09;99830.79;;;4.45;100.00
59073;BME280;44859;51.934;15.554;2024-02-28T00:05:41;99834.04;;;4.48;100.00
59073;BME280;44859;51.934;15.554;2024-02-28T00:11:37;99837.30;;;4.50;100.00
59073;BME280;44859;51.934;15.554;2024-02-28T00:17:06;99832.10;;;4.48;100.00
59073;BME280;44859;51.934;15.554;2024-02-28T00:22:32;99830.89;;;4.49;100.00
59073;BME280;44859;51.934;15.554;2024-02-28T00:28:05;99827.42;;;4.48;100.00
59073;BME280;44859;51.934;15.554;2024-02-28T00:33:44;99828.92;;;4.43;100.00
59073;BME280;44859;51.934;15.554;2024-02-28T00:39:11;99828.86;;;4.39;100.00
59073;BME280;44859;51.934;15.554;2024-02-28T00:44:17;99832.73;;;4.37;100.00
59073;BME280;44859;51.934;15.554;2024-02-28T00:49:44;99837.68;;;4.41;100.00
59073;BME280;44859;51.934;15.554;2024-02-28T00:55:06;99834.18;;;4.41;100.00
59073;BME280;44859;51.934;15.554;2024-02-28T01:00:23;99832.11;;;4.41;100.00
59073;BME280;44859;51.934;15.554;2024-02-28T01:06:13;99833.23;;;4.37;100.00
59073;BME280;44859;51.934;15.554;2024-02-28T01:11:28;99829.90;;;4.39;100.00
59073;BME280;44859;51.934;15.554;2024-02-28T01:23:03;99821.54;;;4.31;100.00
59073;BME280;44859;51.934;15.554;2024-02-28T01:28:09;99818.90;;;4.25;100.00
59073;BME280;44859;51.934;15.554;2024-02-28T01:33:39;99814.10;;;4.22;100.00
59073;BME280;44859;51.934;15.554;2024-02-28T01:38:44;99815.83;;;4.22;100.00
59073;BME280;44859;51.934;15.554;2024-02-28T01:50:05;99819.33;;;4.22;100.00
59073;BME280;44859;51.934;15.554;2024-02-28T02:01:50;99822.19;;;4.18;100.00
59073;BME280;44859;51.934;15.554;2024-02-28T02:07:19;99823.09;;;4.17;100.00
59073;BME280;44859;51.934;15.554;2024-02-28T02:13:04;99826.25;;;4.16;100.00
59073;BME280;44859;51.934;15.554;2024-02-28T02:18:14;99826.35;;;4.11;100.00
59073;BME280;44859;51.934;15.554;2024-02-28T02:23:59;99819.23;;;4.10;100.00
59073;BME280;44859;51.934;15.554;2024-02-28T02:29:23;99827.92;;;4.10;100.00
59073;BME280;44859;51.934;15.554;2024-02-28T02:34:32;99830.59;;;4.07;100.00
59073;BME280;44859;51.934;15.554;2024-02-28T02:40:07;99828.69;;;4.07;100.00
59073;BME280;44859;51.934;15.554;2024-02-28T02:45:34;99828.08;;;4.03;100.00
59073;BME280;44859;51.934;15.554;2024-02-28T02:50:37;99833.02;;;4.00;100.00
59073;BME280;44859;51.934;15.554;2024-02-28T02:56:04;99833.98;;;3.94;100.00
59073;BME280;44859;51.934;15.554;2024-02-28T03:01:08;99832.73;;;3.96;100.00
59073;BME280;44859;51.934;15.554;2024-02-28T03:06:17;99825.17;;;3.92;100.00
59073;BME280;44859;51.934;15.554;2024-02-28T03:11:27;99828.73;;;3.88;100.00
59073;BME280;44859;51.934;15.554;2024-02-28T03:16:34;99830.58;;;3.91;100.00
59073;BME280;44859;51.934;15.554;2024-02-28T03:21:46;99834.52;;;3.94;100.00
59073;BME280;44859;51.934;15.554;2024-02-28T03:26:52;99841.48;;;3.93;100.00
59073;BME280;44859;51.934;15.554;2024-02-28T03:32:03;99842.15;;;3.94;100.00
59073;BME280;44859;51.934;15.554;2024-02-28T03:37:07;99839.55;;;3.94;100.00
59073;BME280;44859;51.934;15.554;2024-02-28T03:42:10;99832.67;;;3.90;100.00
59073;BME280;44859;51.934;15.554;2024-02-28T03:47:25;99835.80;;;3.91;100.00
59073;BME280;44859;51.934;15.554;2024-02-28T03:52:41;99844.44;;;3.85;100.00
59073;BME280;44859;51.934;15.554;2024-02-28T03:57:58;99846.90;;;3.83;100.00
59073;BME280;44859;51.934;15.554;2024-02-28T04:03:34;99849.64;;;3.76;100.00
59073;BME280;44859;51.934;15.554;2024-02-28T04:08:49;99852.91;;;3.77;100.00
59073;BME280;44859;51.934;15.554;2024-02-28T04:14:05;99859.45;;;3.80;100.00
59073;BME280;44859;51.934;15.554;2024-02-28T04:19:43;99860.19;;;3.79;100.00
59073;BME280;44859;51.934;15.554;2024-02-28T04:25:33;99860.78;;;3.75;100.00
59073;BME280;44859;51.934;15.554;2024-02-28T04:30:46;99871.45;;;3.72;100.00
59073;BME280;44859;51.934;15.554;2024-02-28T04:35:53;99877.45;;;3.67;100.00
59073;BME280;44859;51.934;15.554;2024-02-28T04:40:59;99880.52;;;3.70;100.00
59073;BME280;44859;51.934;15.554;2024-02-28T04:46:04;99889.52;;;3.71;100.00
59073;BME280;44859;51.934;15.554;2024-02-28T04:51:19;99893.98;;;3.73;100.00
59073;BME280;44859;51.934;15.554;2024-02-28T04:56:39;99906.38;;;3.70;100.00
59073;BME280;44859;51.934;15.554;2024-02-28T05:02:08;99911.55;;;3.64;100.00
59073;BME280;44859;51.934;15.554;2024-02-28T05:07:34;99910.34;;;3.63;100.00
59073;BME280;44859;51.934;15.554;2024-02-28T05:18:26;99924.63;;;3.61;100.00
59073;BME280;44859;51.934;15.554;2024-02-28T05:23:53;99928.92;;;3.63;100.00
59073;BME280;44859;51.934;15.554;2024-02-28T05:28:56;99923.52;;;3.54;100.00
59073;BME280;44859;51.934;15.554;2024-02-28T05:34:04;99923.23;;;3.51;100.00
59073;BME280;44859;51.934;15.554;2024-02-28T05:39:19;99930.91;;;3.49;100.00
59073;BME280;44859;51.934;15.554;2024-02-28T05:44:52;99951.17;;;3.42;100.00
59073;BME280;44859;51.934;15.554;2024-02-28T05:50:16;99955.56;;;3.38;100.00
59073;BME280;44859;51.934;15.554;2024-02-28T05:55:23;99963.66;;;3.43;100.00
59073;BME280;44859;51.934;15.554;2024-02-28T06:00:27;99968.34;;;3.43;100.00
59073;BME280;44859;51.934;15.554;2024-02-28T06:05:40;99974.27;;;3.41;100.00
59073;BME280;44859;51.934;15.554;2024-02-28T06:11:00;99980.21;;;3.38;100.00
59073;BME280;44859;51.934;15.554;2024-02-28T06:16:27;99985.17;;;3.32;100.00
59073;BME280;44859;51.934;15.554;2024-02-28T06:21:40;99993.02;;;3.31;100.00
59073;BME280;44859;51.934;15.554;2024-02-28T06:27:03;99995.34;;;3.26;100.00
59073;BME280;44859;51.934;15.554;2024-02-28T06:32:18;100002.58;;;3.30;100.00
59073;BME280;44859;51.934;15.554;2024-02-28T06:37:33;100004.62;;;3.33;100.00
59073;BME280;44859;51.934;15.554;2024-02-28T06:43:14;100008.14;;;3.30;100.00
59073;BME280;44859;51.934;15.554;2024-02-28T06:48:21;100014.42;;;3.27;100.00
59073;BME280;44859;51.934;15.554;2024-02-28T06:53:34;100020.43;;;3.31;100.00
59073;BME280;44859;51.934;15.554;2024-02-28T06:59:00;100024.71;;;3.23;100.00
59073;BME280;44859;51.934;15.554;2024-02-28T07:04:23;100023.60;;;3.16;100.00
59073;BME280;44859;51.934;15.554;2024-02-28T07:09:37;100033.05;;;3.12;100.00
59073;BME280;44859;51.934;15.554;2024-02-28T07:14:44;100043.48;;;3.11;100.00
59073;BME280;44859;51.934;15.554;2024-02-28T07:20:03;100045.23;;;3.09;100.00
59073;BME280;44859;51.934;15.554;2024-02-28T07:25:11;100041.73;;;3.11;100.00
59073;BME280;44859;51.934;15.554;2024-02-28T07:30:21;100052.85;;;3.10;100.00
59073;BME280;44859;51.934;15.554;2024-02-28T07:35:25;100055.85;;;3.08;100.00
59073;BME280;44859;51.934;15.554;2024-02-28T07:40:50;100055.36;;;3.05;100.00
59073;BME280;44859;51.934;15.554;2024-02-28T07:45:58;100059.28;;;2.98;100.00
59073;BME280;44859;51.934;15.554;2024-02-28T07:51:26;100059.90;;;3.03;100.00
59073;BME280;44859;51.934;15.554;2024-02-28T08:03:22;100069.11;;;3.01;100.00
59073;BME280;44859;51.934;15.554;2024-02-28T08:09:05;100064.94;;;3.02;100.00
59073;BME280;44859;51.934;15.554;2024-02-28T08:14:37;100072.95;;;3.00;100.00
59073;BME280;44859;51.934;15.554;2024-02-28T08:19:44;100070.09;;;2.92;100.00
59073;BME280;44859;51.934;15.554;2024-02-28T08:24:51;100073.89;;;2.94;100.00
59073;BME280;44859;51.934;15.554;2024-02-28T08:30:37;100078.52;;;2.98;100.00
59073;BME280;44859;51.934;15.554;2024-02-28T08:35:39;100085.48;;;2.96;100.00
59073;BME280;44859;51.934;15.554;2024-02-28T08:40:44;100092.95;;;2.97;100.00
59073;BME280;44859;51.934;15.554;2024-02-28T08:51:31;100110.33;;;2.94;100.00
59073;BME280;44859;51.934;15.554;2024-02-28T08:56:48;100111.55;;;2.94;100.00
59073;BME280;44859;51.934;15.554;2024-02-28T09:02:08;100111.72;;;2.93;100.00
59073;BME280;44859;51.934;15.554;2024-02-28T09:07:29;100112.23;;;2.94;100.00
59073;BME280;44859;51.934;15.554;2024-02-28T09:12:33;100115.61;;;2.87;100.00
59073;BME280;44859;51.934;15.554;2024-02-28T09:17:40;100110.84;;;2.80;100.00
59073;BME280;44859;51.934;15.554;2024-02-28T09:22:44;100117.61;;;2.79;100.00
59073;BME280;44859;51.934;15.554;2024-02-28T09:28:03;100123.92;;;2.88;100.00
59073;BME280;44859;51.934;15.554;2024-02-28T09:33:15;100134.10;;;2.93;100.00
59073;BME280;44859;51.934;15.554;2024-02-28T09:38:36;100135.21;;;2.88;100.00
59073;BME280;44859;51.934;15.554;2024-02-28T09:43:50;100135.47;;;2.79;100.00
59073;BME280;44859;51.934;15.554;2024-02-28T09:49:09;100141.98;;;2.69;100.00
59073;BME280;44859;51.934;15.554;2024-02-28T09:54:36;100141.79;;;2.73;100.00
59073;BME280;44859;51.934;15.554;2024-02-28T09:59:43;100143.70;;;2.87;100.00
59073;BME280;44859;51.934;15.554;2024-02-28T10:05:06;100151.58;;;2.82;100.00
59073;BME280;44859;51.934;15.554;2024-02-28T10:10:15;100156.58;;;2.83;100.00
59073;BME280;44859;51.934;15.554;2024-02-28T10:16:00;100168.91;;;2.97;100.00
59073;BME280;44859;51.934;15.554;2024-02-28T10:21:14;100172.93;;;2.96;100.00
59073;BME280;44859;51.934;15.554;2024-02-28T10:26:27;100184.83;;;2.88;100.00
59073;BME280;44859;51.934;15.554;2024-02-28T10:31:42;100189.52;;;2.85;100.00
59073;BME280;44859;51.934;15.554;2024-02-28T10:36:52;100201.87;;;2.83;100.00
59073;BME280;44859;51.934;15.554;2024-02-28T10:42:08;100202.20;;;2.85;100.00
59073;BME280;44859;51.934;15.554;2024-02-28T10:47:20;100203.67;;;2.94;100.00
59073;BME280;44859;51.934;15.554;2024-02-28T10:52:28;100211.09;;;2.97;100.00
59073;BME280;44859;51.934;15.554;2024-02-28T10:57:44;100214.00;;;3.01;100.00
59073;BME280;44859;51.934;15.554;2024-02-28T11:03:02;100216.82;;;2.97;100.00
59073;BME280;44859;51.934;15.554;2024-02-28T11:08:20;100219.61;;;2.96;100.00
59073;BME280;44859;51.934;15.554;2024-02-28T11:13:55;100220.60;;;2.99;100.00
59073;BME280;44859;51.934;15.554;2024-02-28T11:19:00;100220.83;;;2.94;100.00
59073;BME280;44859;51.934;15.554;2024-02-28T11:24:53;100223.07;;;2.97;100.00
59073;BME280;44859;51.934;15.554;2024-02-28T11:29:58;100224.46;;;2.96;100.00
59073;BME280;44859;51.934;15.554;2024-02-28T11:35:10;100231.73;;;2.97;100.00
59073;BME280;44859;51.934;15.554;2024-02-28T11:40:28;100231.38;;;2.97;100.00
59073;BME280;44859;51.934;15.554;2024-02-28T11:45:39;100234.84;;;2.99;100.00
59073;BME280;44859;51.934;15.554;2024-02-28T11:50:43;100238.08;;;3.05;100.00
59073;BME280;44859;51.934;15.554;2024-02-28T11:55:47;100242.19;;;3.10;100.00
59073;BME280;44859;51.934;15.554;2024-02-28T12:01:03;100251.42;;;3.06;100.00
59073;BME280;44859;51.934;15.554;2024-02-28T12:06:11;100247.61;;;3.06;100.00
59073;BME280;44859;51.934;15.554;2024-02-28T12:11:19;100247.30;;;3.01;100.00
59073;BME280;44859;51.934;15.554;2024-02-28T12:16:25;100247.59;;;3.07;100.00
59073;BME280;44859;51.934;15.554;2024-02-28T12:21:40;100248.46;;;3.06;100.00
59073;BME280;44859;51.934;15.554;2024-02-28T12:26:56;100246.59;;;3.04;100.00
59073;BME280;44859;51.934;15.554;2024-02-28T12:32:11;100252.14;;;3.04;100.00
59073;BME280;44859;51.934;15.554;2024-02-28T12:37:15;100251.47;;;3.02;100.00
59073;BME280;44859;51.934;15.554;2024-02-28T12:42:39;100258.73;;;3.04;100.00
59073;BME280;44859;51.934;15.554;2024-02-28T12:47:46;100260.15;;;3.01;100.00
59073;BME280;44859;51.934;15.554;2024-02-28T12:53:03;100254.84;;;2.95;100.00
59073;BME280;44859;51.934;15.554;2024-02-28T12:58:19;100260.19;;;2.99;100.00
59073;BME280;44859;51.934;15.554;2024-02-28T13:03:49;100263.11;;;2.99;100.00
59073;BME280;44859;51.934;15.554;2024-02-28T13:09:04;100267.69;;;2.94;100.00
59073;BME280;44859;51.934;15.554;2024-02-28T13:14:19;100273.92;;;2.96;100.00
59073;BME280;44859;51.934;15.554;2024-02-28T13:19:36;100278.39;;;3.00;100.00
59073;BME280;44859;51.934;15.554;2024-02-28T13:25:03;100272.83;;;3.01;100.00
59073;BME280;44859;51.934;15.554;2024-02-28T13:30:07;100270.98;;;2.94;100.00
59073;BME280;44859;51.934;15.554;2024-02-28T13:35:11;100268.29;;;2.85;100.00
59073;BME280;44859;51.934;15.554;2024-02-28T13:40:17;100270.07;;;2.80;100.00
59073;BME280;44859;51.934;15.554;2024-02-28T13:45:21;100270.02;;;2.85;100.00
59073;BME280;44859;51.934;15.554;2024-02-28T13:50:27;100270.11;;;2.94;100.00
59073;BME280;44859;51.934;15.554;2024-02-28T13:55:51;100269.35;;;3.01;100.00
59073;BME280;44859;51.934;15.554;2024-02-28T14:00:55;100273.52;;;3.00;100.00
59073;BME280;44859;51.934;15.554;2024-02-28T14:06:02;100274.28;;;2.94;100.00
59073;BME280;44859;51.934;15.554;2024-02-28T14:11:10;100279.83;;;2.95;100.00
59073;BME280;44859;51.934;15.554;2024-02-28T14:16:15;100282.54;;;3.01;100.00
59073;BME280;44859;51.934;15.554;2024-02-28T14:21:21;100284.21;;;2.89;100.00
59073;BME280;44859;51.934;15.554;2024-02-28T14:26:38;100279.40;;;2.84;100.00
59073;BME280;44859;51.934;15.554;2024-02-28T14:31:42;100285.44;;;2.86;100.00
59073;BME280;44859;51.934;15.554;2024-02-28T14:36:46;100283.19;;;2.85;100.00
59073;BME280;44859;51.934;15.554;2024-02-28T14:41:51;100287.77;;;2.79;100.00
59073;BME280;44859;51.934;15.554;2024-02-28T14:47:03;100291.08;;;2.79;100.00
59073;BME280;44859;51.934;15.554;2024-02-28T14:52:10;100302.70;;;2.78;100.00
59073;BME280;44859;51.934;15.554;2024-02-28T14:57:14;100303.64;;;2.89;100.00
59073;BME280;44859;51.934;15.554;2024-02-28T15:02:19;100308.80;;;2.94;100.00
59073;BME280;44859;51.934;15.554;2024-02-28T15:07:23;100311.95;;;2.92;100.00
59073;BME280;44859;51.934;15.554;2024-02-28T15:12:30;100308.30;;;2.91;100.00
59073;BME280;44859;51.934;15.554;2024-02-28T15:17:39;100311.23;;;2.95;100.00
59073;BME280;44859;51.934;15.554;2024-02-28T15:22:42;100309.16;;;2.92;100.00
59073;BME280;44859;51.934;15.554;2024-02-28T15:27:58;100307.42;;;2.93;100.00
59073;BME280;44859;51.934;15.554;2024-02-28T15:33:05;100310.38;;;2.93;100.00
59073;BME280;44859;51.934;15.554;2024-02-28T15:38:09;100306.88;;;2.96;100.00
59073;BME280;44859;51.934;15.554;2024-02-28T15:43:15;100317.54;;;2.86;100.00
59073;BME280;44859;51.934;15.554;2024-02-28T15:48:18;100320.90;;;2.78;100.00
59073;BME280;44859;51.934;15.554;2024-02-28T15:53:22;100325.95;;;2.78;100.00
59073;BME280;44859;51.934;15.554;2024-02-28T15:58:28;100330.10;;;2.78;100.00
59073;BME280;44859;51.934;15.554;2024-02-28T16:03:35;100333.22;;;2.79;100.00
59073;BME280;44859;51.934;15.554;2024-02-28T16:08:52;100333.41;;;2.77;100.00
59073;BME280;44859;51.934;15.554;2024-02-28T16:14:01;100336.67;;;2.82;100.00
59073;BME280;44859;51.934;15.554;2024-02-28T16:19:14;100339.44;;;2.82;100.00
59073;BME280;44859;51.934;15.554;2024-02-28T16:24:32;100342.41;;;2.79;100.00
59073;BME280;44859;51.934;15.554;2024-02-28T16:29:35;100347.42;;;2.81;100.00
59073;BME280;44859;51.934;15.554;2024-02-28T16:34:44;100347.61;;;2.78;100.00
59073;BME280;44859;51.934;15.554;2024-02-28T16:39:48;100346.11;;;2.71;100.00
59073;BME280;44859;51.934;15.554;2024-02-28T16:44:59;100353.22;;;2.71;100.00
59073;BME280;44859;51.934;15.554;2024-02-28T16:50:15;100356.00;;;2.70;100.00
59073;BME280;44859;51.934;15.554;2024-02-28T16:55:23;100361.94;;;2.65;100.00
59073;BME280;44859;51.934;15.554;2024-02-28T17:00:59;100367.52;;;2.62;100.00
59073;BME280;44859;51.934;15.554;2024-02-28T17:06:02;100375.02;;;2.56;100.00
59073;BME280;44859;51.934;15.554;2024-02-28T17:11:15;100376.23;;;2.55;100.00
59073;BME280;44859;51.934;15.554;2024-02-28T17:16:34;100377.45;;;2.54;100.00
59073;BME280;44859;51.934;15.554;2024-02-28T17:22:06;100382.69;;;2.48;100.00
59073;BME280;44859;51.934;15.554;2024-02-28T17:27:10;100387.39;;;2.46;100.00
59073;BME280;44859;51.934;15.554;2024-02-28T17:32:15;100389.65;;;2.44;100.00
59073;BME280;44859;51.934;15.554;2024-02-28T17:37:27;100390.37;;;2.40;100.00
59073;BME280;44859;51.934;15.554;2024-02-28T17:42:30;100394.38;;;2.34;100.00
59073;BME280;44859;51.934;15.554;2024-02-28T17:47:38;100391.99;;;2.27;100.00
59073;BME280;44859;51.934;15.554;2024-02-28T17:52:45;100401.89;;;2.24;100.00
59073;BME280;44859;51.934;15.554;2024-02-28T17:57:53;100413.67;;;2.24;100.00
59073;BME280;44859;51.934;15.554;2024-02-28T18:03:09;100413.85;;;2.22;100.00
59073;BME280;44859;51.934;15.554;2024-02-28T18:08:54;100415.95;;;2.19;100.00
59073;BME280;44859;51.934;15.554;2024-02-28T18:14:07;100418.55;;;2.16;100.00
59073;BME280;44859;51.934;15.554;2024-02-28T18:20:36;100417.86;;;2.15;100.00
59073;BME280;44859;51.934;15.554;2024-02-28T18:25:42;100423.08;;;2.12;100.00
59073;BME280;44859;51.934;15.554;2024-02-28T18:30:55;100422.95;;;2.05;100.00
59073;BME280;44859;51.934;15.554;2024-02-28T18:42:02;100429.37;;;2.01;100.00
59073;BME280;44859;51.934;15.554;2024-02-28T18:47:09;100427.47;;;1.99;100.00
59073;BME280;44859;51.934;15.554;2024-02-28T18:52:13;100435.44;;;1.99;100.00
59073;BME280;44859;51.934;15.554;2024-02-28T18:57:40;100443.08;;;1.91;100.00
59073;BME280;44859;51.934;15.554;2024-02-28T19:03:25;100449.51;;;1.86;100.00
59073;BME280;44859;51.934;15.554;2024-02-28T19:08:31;100447.60;;;1.88;100.00
59073;BME280;44859;51.934;15.554;2024-02-28T19:13:39;100446.73;;;1.86;100.00
59073;BME280;44859;51.934;15.554;2024-02-28T19:18:43;100449.84;;;1.84;100.00
59073;BME280;44859;51.934;15.554;2024-02-28T19:23:47;100457.48;;;1.79;100.00
59073;BME280;44859;51.934;15.554;2024-02-28T19:28:52;100456.98;;;1.76;100.00
59073;BME280;44859;51.934;15.554;2024-02-28T19:33:56;100463.39;;;1.72;100.00
59073;BME280;44859;51.934;15.554;2024-02-28T19:39:10;100470.66;;;1.72;100.00
59073;BME280;44859;51.934;15.554;2024-02-28T19:44:14;100464.94;;;1.74;100.00
59073;BME280;44859;51.934;15.554;2024-02-28T19:49:18;100466.31;;;1.74;100.00
59073;BME280;44859;51.934;15.554;2024-02-28T19:54:21;100466.50;;;1.74;100.00
59073;BME280;44859;51.934;15.554;2024-02-28T19:59:33;100463.73;;;1.72;100.00
59073;BME280;44859;51.934;15.554;2024-02-28T20:04:38;100462.87;;;1.68;100.00
59073;BME280;44859;51.934;15.554;2024-02-28T20:09:42;100463.41;;;1.65;100.00
59073;BME280;44859;51.934;15.554;2024-02-28T20:14:46;100467.72;;;1.64;100.00
59073;BME280;44859;51.934;15.554;2024-02-28T20:19:59;100467.73;;;1.59;100.00
59073;BME280;44859;51.934;15.554;2024-02-28T20:25:06;100463.58;;;1.54;100.00
59073;BME280;44859;51.934;15.554;2024-02-28T20:30:56;100466.54;;;1.49;100.00
59073;BME280;44859;51.934;15.554;2024-02-28T20:36:06;100463.59;;;1.46;100.00
59073;BME280;44859;51.934;15.554;2024-02-28T20:41:42;100468.11;;;1.38;100.00
59073;BME280;44859;51.934;15.554;2024-02-28T20:46:50;100469.50;;;1.39;100.00
59073;BME280;44859;51.934;15.554;2024-02-28T20:52:17;100471.05;;;1.38;100.00
59073;BME280;44859;51.934;15.554;2024-02-28T20:57:53;100469.48;;;1.32;100.00
59073;BME280;44859;51.934;15.554;2024-02-28T21:03:10;100471.39;;;1.26;100.00
59073;BME280;44859;51.934;15.554;2024-02-28T21:08:29;100470.17;;;1.21;100.00
59073;BME280;44859;51.934;15.554;2024-02-28T21:13:41;100470.34;;;1.16;100.00
59073;BME280;44859;51.934;15.554;2024-02-28T21:24:36;100470.52;;;1.20;100.00
59073;BME280;44859;51.934;15.554;2024-02-28T21:30:11;100471.02;;;1.18;100.00
59073;BME280;44859;51.934;15.554;2024-02-28T21:35:55;100464.64;;;1.21;100.00
59073;BME280;44859;51.934;15.554;2024-02-28T21:41:31;100464.28;;;1.21;100.00
59073;BME280;44859;51.934;15.554;2024-02-28T21:46:39;100459.27;;;1.22;100.00
59073;BME280;44859;51.934;15.554;2024-02-28T21:52:04;100449.07;;;1.16;100.00
59073;BME280;44859;51.934;15.554;2024-02-28T21:57:09;100452.69;;;1.12;100.00
59073;BME280;44859;51.934;15.554;2024-02-28T22:02:16;100440.23;;;1.14;100.00
59073;BME280;44859;51.934;15.554;2024-02-28T22:13:06;100439.38;;;1.13;100.00
59073;BME280;44859;51.934;15.554;2024-02-28T22:18:21;100435.22;;;1.11;100.00
59073;BME280;44859;51.934;15.554;2024-02-28T22:23:28;100440.58;;;1.06;100.00
59073;BME280;44859;51.934;15.554;2024-02-28T22:28:39;100434.89;;;1.00;100.00
59073;BME280;44859;51.934;15.554;2024-02-28T22:33:43;100439.02;;;0.97;100.00
59073;BME280;44859;51.934;15.554;2024-02-28T22:39:06;100440.39;;;0.88;100.00
59073;BME280;44859;51.934;15.554;2024-02-28T22:44:12;100438.67;;;0.86;100.00
59073;BME280;44859;51.934;15.554;2024-02-28T22:49:36;100436.93;;;0.86;100.00
59073;BME280;44859;51.934;15.554;2024-02-28T22:54:42;100440.22;;;0.83;100.00
59073;BME280;44859;51.934;15.554;2024-02-28T23:00:16;100443.84;;;0.78;100.00
59073;BME280;44859;51.934;15.554;2024-02-28T23:05:52;100442.77;;;0.66;100.00
59073;BME280;44859;51.934;15.554;2024-02-28T23:11:12;100448.29;;;0.55;100.00
59073;BME280;44859;51.934;15.554;2024-02-28T23:16:50;100448.09;;;0.47;100.00
59073;BME280;44859;51.934;15.554;2024-02-28T23:22:15;100443.56;;;0.37;100.00
59073;BME280;44859;51.934;15.554;2024-02-28T23:27:22;100450.08;;;0.23;100.00
59073;BME280;44859;51.934;15.554;2024-02-28T23:32:29;100448.79;;;0.05;100.00
59073;BME280;44859;51.934;15.554;2024-02-28T23:37:43;100443.70;;;-0.14;100.00
59073;BME280;44859;51.934;15.554;2024-02-28T23:42:55;100443.61;;;-0.29;100.00
59073;BME280;44859;51.934;15.554;2024-02-28T23:48:09;100445.70;;;-0.51;100.00
59073;BME280;44859;51.934;15.554;2024-02-28T23:53:12;100444.38;;;-0.67;100.00
59073;BME280;44859;51.934;15.554;2024-02-28T23:58:38;100440.44;;;-0.86;100.00
